首页
METAR-TAF:

METAR-TAF

机场 :

Hoonah, 阿拉斯加州, 美国

纬度: 58-07N, 经度: 135-27W, 海拔: 0米

当前天气观测

该预报发布于30分钟前的08:56 UTC
风速7节,风向,在西北东转东北之间变化
温度 16°C
湿度 27%
气压 1012 hPa
能見度: 16.1公里
天空无云

METAR: PAOH 180856Z AUTO 01007KT 320V070 10SM CLR 16/M03 A2987 RMK AO2 SLP115 T01611028 51016

时间: 01:26 (09:26 UTC)


TAF: 丢失

超过4000个机场的气象观测和天气预报(METAR&TAF报告)。

可查询的气象台以黄色和红色小点在地图上表示。

将鼠标移到小点上方,可查看气象台名称。

然后点击查看天气观测和预报。

如需切换地图:点击带黑十字的绿色按钮放大地图;点击带横线的绿色按钮缩小地图;或者点击绿色箭头查看邻近地区的地图。


METAR-TAF: